Time;durP1;ratioP1;P1;durP2;ratioP2;P2;SDS_P1;SDS_P2;PMS_P1;PMS_P2;Temp;Humidity;BMP_temperature;BMP_pressure;BME280_temperature;BME280_humidity;BME280_pressure;Samples;Min_cycle;Max_cycle;Signal;HPM_P1;HPM_P2
2021/06/27 00:02:07;;;;;;;41.85;23.45;;;18.90;99.90;;;;;;5043333;28;20209;-74
2021/06/27 00:04:32;;;;;;;43.47;22.25;;;19.00;99.90;;;;;;5032780;28;20029;-75
2021/06/27 00:06:58;;;;;;;36.72;22.33;;;19.00;99.90;;;;;;5015547;28;20037;-74
2021/06/27 00:09:23;;;;;;;37.92;23.30;;;19.00;99.90;;;;;;5014187;28;20029;-74
2021/06/27 00:11:49;;;;;;;40.88;22.73;;;19.10;99.90;;;;;;5024680;28;20083;-74
2021/06/27 00:14:15;;;;;;;38.08;23.00;;;19.00;99.90;;;;;;5032608;28;20132;-75
2021/06/27 00:16:41;;;;;;;44.20;24.08;;;19.00;99.90;;;;;;5033214;28;20108;-74
2021/06/27 00:19:07;;;;;;;38.55;22.35;;;19.00;99.90;;;;;;5033518;28;20029;-74
2021/06/27 00:21:33;;;;;;;37.30;23.23;;;19.00;99.90;;;;;;5032996;28;20481;-74
2021/06/27 00:23:59;;;;;;;41.33;24.02;;;18.90;99.90;;;;;;5019424;28;20529;-75
2021/06/27 00:26:26;;;;;;;43.75;23.60;;;18.90;99.90;;;;;;5031784;28;20033;-74
2021/06/27 00:28:53;;;;;;;37.38;23.58;;;18.90;99.90;;;;;;5032858;28;20513;-74
2021/06/27 00:31:19;;;;;;;39.67;23.53;;;18.90;99.90;;;;;;5031919;28;20060;-74
2021/06/27 00:33:45;;;;;;;39.05;22.70;;;18.90;99.90;;;;;;5033379;28;20029;-74
2021/06/27 00:36:11;;;;;;;40.75;25.13;;;18.90;99.90;;;;;;5032377;28;20413;-75
2021/06/27 00:38:37;;;;;;;35.92;23.10;;;18.90;99.90;;;;;;5033434;28;20028;-74
2021/06/27 00:41:03;;;;;;;37.38;22.02;;;18.90;99.90;;;;;;5033325;28;20038;-74
2021/06/27 00:43:29;;;;;;;35.45;22.25;;;18.90;99.90;;;;;;5022618;28;20030;-74
2021/06/27 00:45:57;;;;;;;35.55;22.83;;;18.90;99.90;;;;;;5013455;28;20034;-74
2021/06/27 00:48:23;;;;;;;37.80;22.17;;;18.90;99.90;;;;;;5013415;28;20061;-75
2021/06/27 00:50:52;;;;;;;38.25;23.40;;;18.90;99.90;;;;;;5030522;28;20048;-75
2021/06/27 00:53:18;;;;;;;46.20;24.73;;;18.80;99.90;;;;;;5012582;28;20026;-74
2021/06/27 00:55:46;;;;;;;34.30;22.08;;;18.70;99.90;;;;;;5029350;28;20034;-74
2021/06/27 00:58:12;;;;;;;39.05;22.73;;;18.80;99.90;;;;;;5033157;28;20386;-74
2021/06/27 01:00:41;;;;;;;37.55;22.92;;;18.80;99.90;;;;;;5029362;28;20059;-74
2021/06/27 01:03:08;;;;;;;37.72;22.40;;;18.80;99.90;;;;;;5013335;28;20478;-74
2021/06/27 01:05:36;;;;;;;39.95;22.52;;;18.80;99.90;;;;;;5027842;28;20067;-74
2021/06/27 01:08:02;;;;;;;37.28;22.63;;;18.80;99.90;;;;;;5032577;28;20025;-74
2021/06/27 01:10:29;;;;;;;39.10;22.60;;;18.80;99.90;;;;;;5032901;28;20041;-75
2021/06/27 01:12:55;;;;;;;35.28;22.92;;;18.80;99.90;;;;;;5032987;28;20029;-74
2021/06/27 01:15:22;;;;;;;38.30;21.70;;;18.80;99.90;;;;;;5032578;28;20485;-74
2021/06/27 01:17:51;;;;;;;37.38;22.58;;;18.80;99.90;;;;;;5027855;28;20528;-75
2021/06/27 01:20:23;;;;;;;39.05;23.50;;;18.70;99.90;;;;;;5032964;28;20025;-74
2021/06/27 01:22:50;;;;;;;45.47;24.38;;;18.60;99.90;;;;;;5030428;28;20033;-74
2021/06/27 01:25:19;;;;;;;36.95;22.77;;;18.60;99.90;;;;;;5032974;28;20116;-74
2021/06/27 01:27:45;;;;;;;40.60;23.58;;;18.70;99.90;;;;;;5031005;28;20036;-74
2021/06/27 01:30:12;;;;;;;40.50;23.17;;;18.70;99.90;;;;;;5032806;28;20120;-74
2021/06/27 01:32:43;;;;;;;29.33;17.20;;;18.60;99.90;;;;;;5038713;28;20048;-74
2021/06/27 01:35:14;;;;;;;43.00;24.65;;;18.60;99.90;;;;;;5045401;28;20470;-74
2021/06/27 01:37:41;;;;;;;41.72;22.25;;;18.60;99.90;;;;;;5034686;28;20025;-75
2021/06/27 01:40:08;;;;;;;37.72;23.73;;;18.60;99.90;;;;;;5035175;28;20028;-74
2021/06/27 01:42:34;;;;;;;35.05;21.55;;;18.60;99.90;;;;;;5035541;28;20021;-74
2021/06/27 01:45:11;;;;;;;39.97;23.77;;;18.60;99.90;;;;;;5035751;28;20076;-74
2021/06/27 01:50:21;;;;;;;37.00;23.75;;;18.60;99.90;;;;;;5041929;28;20527;-74
2021/06/27 01:52:47;;;;;;;40.40;23.63;;;18.50;99.90;;;;;;5020741;28;20026;-74
2021/06/27 01:55:12;;;;;;;35.55;23.42;;;18.50;99.90;;;;;;5023562;28;20025;-73
2021/06/27 01:57:38;;;;;;;42.05;25.77;;;18.40;99.90;;;;;;5034434;28;20470;-74
2021/06/27 02:00:06;;;;;;;39.63;24.05;;;18.40;99.90;;;;;;5035913;28;20029;-74
2021/06/27 02:02:31;;;;;;;41.15;22.85;;;18.40;99.90;;;;;;5038593;28;20424;-74
2021/06/27 02:04:57;;;;;;;36.90;23.17;;;18.30;99.90;;;;;;5049760;28;20059;-74
2021/06/27 02:07:23;;;;;;;40.53;24.10;;;18.40;99.90;;;;;;5035663;28;20051;-74
2021/06/27 02:09:49;;;;;;;42.08;26.27;;;18.40;99.90;;;;;;5020708;28;20029;-74
2021/06/27 02:12:20;;;;;;;37.15;24.40;;;18.50;99.90;;;;;;5015796;28;20026;-76
2021/06/27 02:14:46;;;;;;;33.25;21.92;;;18.50;99.90;;;;;;5030964;28;20488;-74
2021/06/27 02:17:12;;;;;;;40.53;25.27;;;18.50;99.90;;;;;;5015819;28;20025;-74
2021/06/27 02:19:37;;;;;;;38.60;23.10;;;18.60;99.90;;;;;;5027862;28;20029;-74
2021/06/27 02:22:04;;;;;;;38.83;24.75;;;18.60;99.90;;;;;;5033314;28;20041;-74
2021/06/27 02:24:32;;;;;;;39.27;25.07;;;18.60;99.90;;;;;;5033979;28;20418;-74
2021/06/27 02:26:57;;;;;;;40.38;23.45;;;18.50;99.90;;;;;;5027514;28;20363;-74
2021/06/27 02:29:23;;;;;;;45.55;25.98;;;18.50;99.90;;;;;;5030356;28;20038;-74
2021/06/27 02:31:51;;;;;;;41.47;24.98;;;18.50;99.90;;;;;;5027735;28;20041;-74
2021/06/27 02:34:19;;;;;;;42.40;24.17;;;18.50;99.90;;;;;;5034044;28;20354;-74
2021/06/27 02:36:45;;;;;;;41.42;24.60;;;18.40;99.90;;;;;;5051775;28;20071;-74
2021/06/27 02:39:11;;;;;;;44.10;24.38;;;18.40;99.90;;;;;;5055062;28;20032;-74
2021/06/27 02:41:37;;;;;;;42.90;25.75;;;18.40;99.90;;;;;;5046253;28;20485;-75
2021/06/27 02:44:04;;;;;;;45.67;27.08;;;18.50;99.90;;;;;;5031845;28;20033;-75
2021/06/27 02:46:30;;;;;;;38.47;23.40;;;18.40;99.90;;;;;;5032502;28;20033;-74
2021/06/27 02:48:56;;;;;;;41.85;25.75;;;18.40;99.90;;;;;;5034969;28;20378;-74
2021/06/27 02:51:21;;;;;;;45.90;25.90;;;18.40;99.90;;;;;;5048810;28;20040;-74
2021/06/27 02:53:47;;;;;;;42.03;26.38;;;18.40;99.90;;;;;;5046116;28;20494;-74
2021/06/27 02:56:13;;;;;;;49.78;28.65;;;18.40;99.90;;;;;;5033470;28;20041;-75
2021/06/27 02:58:45;;;;;;;46.38;25.00;;;18.40;99.90;;;;;;5034694;28;20452;-73
2021/06/27 03:01:12;;;;;;;42.15;26.40;;;18.40;99.90;;;;;;5033330;28;20045;-74
2021/06/27 03:03:39;;;;;;;46.90;26.23;;;18.40;99.90;;;;;;5036448;28;20041;-74
2021/06/27 03:06:05;;;;;;;46.80;25.48;;;18.40;99.90;;;;;;5034259;28;20494;-74
2021/06/27 03:08:31;;;;;;;46.08;26.77;;;18.50;99.90;;;;;;5033370;28;20068;-74
2021/06/27 03:10:58;;;;;;;46.67;27.33;;;18.40;99.90;;;;;;5034183;28;20057;-74
2021/06/27 03:13:24;;;;;;;50.83;28.10;;;18.40;99.90;;;;;;5034270;28;20022;-74
2021/06/27 03:15:49;;;;;;;45.47;26.52;;;18.50;99.90;;;;;;5034403;28;20029;-74
2021/06/27 03:18:15;;;;;;;51.35;27.88;;;18.50;99.90;;;;;;5034425;28;20037;-74
2021/06/27 03:20:41;;;;;;;54.35;26.45;;;18.50;99.90;;;;;;5032996;28;20509;-74
2021/06/27 03:23:10;;;;;;;44.53;26.58;;;18.50;99.90;;;;;;5034239;28;20037;-74
2021/06/27 03:25:37;;;;;;;43.38;25.65;;;18.50;99.90;;;;;;5025647;28;20148;-74
2021/06/27 03:28:03;;;;;;;47.60;28.10;;;18.50;99.90;;;;;;5014412;28;20030;-75
2021/06/27 03:30:29;;;;;;;48.30;27.73;;;18.50;99.90;;;;;;5023177;28;20049;-74
2021/06/27 03:32:55;;;;;;;49.63;29.02;;;18.40;99.90;;;;;;5045773;28;20388;-75
2021/06/27 03:35:20;;;;;;;55.35;28.55;;;18.40;99.90;;;;;;5053966;28;20025;-74
2021/06/27 03:38:37;;;;;;;42.72;25.17;;;18.40;99.90;;;;;;5053865;28;20028;-74
2021/06/27 03:40:34;;;;;;;55.00;29.23;;;18.40;99.90;;;;;;5048067;28;20061;-73
2021/06/27 03:43:01;;;;;;;48.97;26.92;;;18.40;99.90;;;;;;5046008;28;20049;-74
2021/06/27 03:45:28;;;;;;;46.80;26.98;;;18.40;99.90;;;;;;5032173;28;20034;-74
2021/06/27 03:47:54;;;;;;;45.33;27.65;;;18.40;99.90;;;;;;5032522;28;20124;-74
2021/06/27 03:50:20;;;;;;;45.38;28.17;;;18.50;99.90;;;;;;5039261;28;20032;-74
2021/06/27 03:52:47;;;;;;;50.03;30.50;;;18.50;99.90;;;;;;5053738;28;20029;-74
2021/06/27 03:55:14;;;;;;;46.23;28.30;;;18.50;99.90;;;;;;5034855;28;20057;-74
2021/06/27 03:57:39;;;;;;;48.97;27.27;;;18.50;99.90;;;;;;5033842;28;20037;-74
2021/06/27 04:00:07;;;;;;;46.92;26.55;;;18.50;99.90;;;;;;5020131;28;20038;-73
2021/06/27 04:02:33;;;;;;;47.70;27.38;;;18.50;99.90;;;;;;5023184;28;20029;-74
2021/06/27 04:04:58;;;;;;;48.00;28.85;;;18.50;99.90;;;;;;5032233;28;20040;-74
2021/06/27 04:07:24;;;;;;;46.35;27.65;;;18.50;99.90;;;;;;5033501;28;20082;-74
2021/06/27 04:09:49;;;;;;;48.75;25.98;;;18.50;99.90;;;;;;5039748;28;20033;-74
2021/06/27 04:12:15;;;;;;;49.33;28.23;;;18.50;99.90;;;;;;5033282;28;20037;-74
2021/06/27 04:14:41;;;;;;;46.45;26.25;;;18.50;99.90;;;;;;5033047;28;20379;-73
2021/06/27 04:17:06;;;;;;;49.90;27.65;;;18.50;99.90;;;;;;5031678;28;20034;-74
2021/06/27 04:19:32;;;;;;;46.58;26.52;;;18.60;99.90;;;;;;5030408;28;20028;-74
2021/06/27 04:21:58;;;;;;;46.70;27.15;;;18.60;99.90;;;;;;5031832;28;20033;-74
2021/06/27 04:24:23;;;;;;;46.67;27.60;;;18.70;99.90;;;;;;5033063;28;20036;-74
2021/06/27 04:26:49;;;;;;;44.88;26.27;;;18.80;99.90;;;;;;5030772;28;20038;-74
2021/06/27 04:29:16;;;;;;;45.88;25.88;;;18.80;99.90;;;;;;5032336;28;20413;-74
2021/06/27 04:31:43;;;;;;;50.53;26.20;;;18.80;99.90;;;;;;5033772;28;20052;-74
2021/06/27 04:34:10;;;;;;;46.53;26.67;;;18.70;99.90;;;;;;5042100;28;20026;-74
2021/06/27 04:36:36;;;;;;;;;;;18.80;99.90;;;;;;5030614;28;20030;-74
2021/06/27 04:39:06;;;;;;;42.90;25.90;;;18.80;99.90;;;;;;5033222;28;20257;-73
2021/06/27 04:41:33;;;;;;;39.35;24.38;;;18.90;99.90;;;;;;5032917;28;20117;-74
2021/06/27 04:43:58;;;;;;;50.72;27.60;;;18.80;99.90;;;;;;5031856;28;20029;-74
2021/06/27 04:46:24;;;;;;;47.42;27.88;;;18.80;99.90;;;;;;5031865;28;20132;-74
2021/06/27 04:48:50;;;;;;;46.10;26.90;;;18.80;99.90;;;;;;5034122;28;20082;-73
2021/06/27 04:51:15;;;;;;;44.67;26.35;;;18.90;99.90;;;;;;5040565;28;20030;-74
2021/06/27 04:53:41;;;;;;;40.85;25.38;;;19.00;99.90;;;;;;5031445;28;20041;-74
2021/06/27 04:56:06;;;;;;;46.58;26.73;;;19.10;99.90;;;;;;5033019;28;20022;-74
2021/06/27 04:58:32;;;;;;;47.53;26.20;;;19.10;99.90;;;;;;5033037;28;20072;-73
2021/06/27 05:00:58;;;;;;;45.72;24.73;;;19.20;99.90;;;;;;5031318;28;20057;-74
2021/06/27 05:03:23;;;;;;;45.70;26.50;;;19.30;99.90;;;;;;5049364;28;20534;-74
2021/06/27 05:05:49;;;;;;;42.72;25.27;;;19.40;99.90;;;;;;5051662;28;20432;-74
2021/06/27 05:08:15;;;;;;;40.13;24.13;;;19.50;99.90;;;;;;5046189;28;20467;-74
2021/06/27 05:10:40;;;;;;;38.72;22.77;;;19.50;99.90;;;;;;5036638;28;20056;-74
2021/06/27 05:13:07;;;;;;;40.92;24.63;;;19.50;99.90;;;;;;5048298;28;20033;-74
2021/06/27 05:15:33;;;;;;;40.53;24.33;;;19.60;99.90;;;;;;5055269;28;20040;-74
2021/06/27 05:17:58;;;;;;;32.95;21.95;;;19.70;99.90;;;;;;5055289;28;20028;-74
2021/06/27 05:20:24;;;;;;;37.38;22.75;;;19.80;99.90;;;;;;5056436;28;20035;-74
2021/06/27 05:22:50;;;;;;;36.47;22.50;;;19.80;99.90;;;;;;5042037;28;20036;-74
2021/06/27 05:25:15;;;;;;;35.15;21.95;;;19.90;99.90;;;;;;5036440;28;20112;-73
2021/06/27 05:27:41;;;;;;;38.42;23.20;;;19.90;99.90;;;;;;5033313;28;20489;-74
2021/06/27 05:30:07;;;;;;;33.45;19.85;;;19.90;99.90;;;;;;5034754;28;20052;-74
2021/06/27 05:32:33;;;;;;;33.33;21.35;;;19.90;99.90;;;;;;5045984;28;20028;-74
2021/06/27 05:34:59;;;;;;;31.00;21.20;;;20.00;99.90;;;;;;5056237;28;20048;-74
2021/06/27 05:37:25;;;;;;;32.83;19.73;;;20.00;99.90;;;;;;5056078;28;20032;-74
2021/06/27 05:39:50;;;;;;;35.17;21.50;;;20.00;99.90;;;;;;5056072;28;20079;-73
2021/06/27 05:42:18;;;;;;;36.35;22.75;;;20.10;99.90;;;;;;5043566;28;20033;-75
2021/06/27 05:44:44;;;;;;;33.58;21.40;;;20.10;99.90;;;;;;5033406;28;20021;-75
2021/06/27 05:47:10;;;;;;;28.38;19.38;;;20.10;99.90;;;;;;5038570;28;20033;-74
2021/06/27 05:49:36;;;;;;;35.88;21.27;;;20.20;99.90;;;;;;5036646;28;20138;-74
2021/06/27 05:52:01;;;;;;;33.42;21.70;;;20.20;99.90;;;;;;5035626;28;20021;-74
2021/06/27 05:54:30;;;;;;;32.08;19.90;;;20.20;99.90;;;;;;5035784;28;20075;-74
2021/06/27 05:56:56;;;;;;;26.45;18.85;;;20.30;99.90;;;;;;5035557;28;20034;-74
2021/06/27 05:59:21;;;;;;;35.30;20.27;;;20.40;99.90;;;;;;5034117;28;20048;-74
2021/06/27 06:01:47;;;;;;;29.58;18.95;;;20.40;99.90;;;;;;5030931;28;20425;-74
2021/06/27 06:04:13;;;;;;;28.05;19.38;;;20.40;99.90;;;;;;5032985;28;20037;-74
2021/06/27 06:06:38;;;;;;;30.65;19.33;;;20.50;99.90;;;;;;5034178;28;20029;-74
2021/06/27 06:09:04;;;;;;;25.63;16.88;;;20.70;99.90;;;;;;5035831;28;20025;-74
2021/06/27 06:11:30;;;;;;;26.98;17.90;;;21.00;99.90;;;;;;5039896;28;20036;-74
2021/06/27 06:13:55;;;;;;;26.15;17.58;;;21.10;99.90;;;;;;5053702;28;20041;-74
2021/06/27 06:16:21;;;;;;;27.98;18.73;;;21.20;99.90;;;;;;5041783;28;20026;-74
2021/06/27 06:18:47;;;;;;;25.75;18.05;;;21.20;99.90;;;;;;5034811;28;20036;-74
2021/06/27 06:21:14;;;;;;;26.77;17.90;;;21.10;99.90;;;;;;5030173;28;20036;-74
2021/06/27 06:23:41;;;;;;;26.77;18.30;;;20.90;99.90;;;;;;5031216;28;20399;-74
2021/06/27 06:26:06;;;;;;;24.93;17.20;;;20.80;99.90;;;;;;5021167;28;20277;-73
2021/06/27 06:28:32;;;;;;;24.80;16.88;;;20.70;99.90;;;;;;5021011;28;20025;-74
2021/06/27 06:30:58;;;;;;;27.73;18.40;;;20.70;99.90;;;;;;5034499;28;20049;-73
2021/06/27 06:33:24;;;;;;;29.30;17.40;;;20.70;99.90;;;;;;5035661;28;20068;-74
2021/06/27 06:35:50;;;;;;;25.67;17.35;;;20.80;99.90;;;;;;5034305;28;20065;-73
2021/06/27 06:38:15;;;;;;;27.00;17.42;;;20.80;99.90;;;;;;5035708;28;20485;-73
2021/06/27 06:40:41;;;;;;;28.05;18.33;;;20.70;99.90;;;;;;5045250;28;20124;-74
2021/06/27 06:43:07;;;;;;;28.02;18.13;;;20.80;99.90;;;;;;5026575;28;20097;-74
2021/06/27 06:45:34;;;;;;;25.20;17.42;;;20.80;99.90;;;;;;5030130;28;20029;-74
2021/06/27 06:47:59;;;;;;;24.67;17.40;;;20.80;99.90;;;;;;5032032;28;20397;-74
2021/06/27 06:50:26;;;;;;;25.13;17.10;;;20.80;99.90;;;;;;5033378;28;20047;-74
2021/06/27 06:52:52;;;;;;;28.70;16.58;;;20.80;99.90;;;;;;5054398;28;20114;-74
2021/06/27 06:55:20;;;;;;;29.30;17.60;;;20.90;99.90;;;;;;5054216;28;20072;-73
2021/06/27 06:57:47;;;;;;;28.00;18.02;;;20.90;99.90;;;;;;5051356;28;20104;-73
2021/06/27 07:00:13;;;;;;;26.25;16.77;;;20.90;99.90;;;;;;5032028;28;20024;-74
2021/06/27 07:02:39;;;;;;;23.45;16.92;;;20.90;99.90;;;;;;5034055;28;20029;-74
2021/06/27 07:05:07;;;;;;;32.28;17.73;;;21.00;99.90;;;;;;5035379;28;20040;-74
2021/06/27 07:07:33;;;;;;;24.25;16.98;;;21.10;99.90;;;;;;5034945;28;20108;-74
2021/06/27 07:09:58;;;;;;;23.27;16.35;;;21.20;99.90;;;;;;5032147;28;20124;-74
2021/06/27 07:12:24;;;;;;;24.20;17.52;;;21.40;99.90;;;;;;5033503;28;20100;-74
2021/06/27 07:14:50;;;;;;;22.48;15.82;;;21.50;99.90;;;;;;5033501;28;20557;-74
2021/06/27 07:17:15;;;;;;;27.02;17.25;;;21.60;99.90;;;;;;5032533;28;20112;-73
2021/06/27 07:19:41;;;;;;;27.63;17.92;;;21.60;99.90;;;;;;5034745;28;20351;-73
2021/06/27 07:22:07;;;;;;;24.00;15.70;;;21.60;99.90;;;;;;5034853;28;20037;-73
2021/06/27 07:24:32;;;;;;;23.33;15.82;;;21.80;99.90;;;;;;5034428;28;20516;-74
2021/06/27 07:26:58;;;;;;;22.30;15.38;;;22.00;99.90;;;;;;5047803;28;20141;-74
2021/06/27 07:29:23;;;;;;;24.80;15.20;;;22.30;99.90;;;;;;5034630;28;20036;-74
2021/06/27 07:31:49;;;;;;;21.85;16.35;;;22.40;99.90;;;;;;5033758;28;20045;-74
2021/06/27 07:34:15;;;;;;;23.63;16.35;;;22.50;99.90;;;;;;5028914;28;20036;-74
2021/06/27 07:36:41;;;;;;;22.42;15.27;;;22.40;99.90;;;;;;5033881;28;20508;-75
2021/06/27 07:39:07;;;;;;;20.50;15.27;;;22.40;99.90;;;;;;5033907;28;20116;-74
2021/06/27 07:41:33;;;;;;;23.67;14.98;;;22.40;99.90;;;;;;5032662;28;20033;-74
2021/06/27 07:43:59;;;;;;;22.67;14.85;;;22.50;99.90;;;;;;5035560;28;20033;-74
2021/06/27 07:46:25;;;;;;;23.48;15.60;;;22.50;99.90;;;;;;5033702;28;20042;-74
2021/06/27 07:48:51;;;;;;;24.13;14.38;;;22.60;99.90;;;;;;5047592;28;20548;-74
2021/06/27 07:51:17;;;;;;;21.23;14.50;;;22.60;99.90;;;;;;5054737;28;20116;-75
2021/06/27 07:53:42;;;;;;;23.80;15.65;;;22.70;99.90;;;;;;5043972;28;20049;-74
2021/06/27 07:56:08;;;;;;;23.35;14.35;;;22.80;99.90;;;;;;5040054;28;20033;-75
2021/06/27 07:58:34;;;;;;;23.17;14.20;;;22.90;99.90;;;;;;5046516;28;20041;-74
2021/06/27 08:00:59;;;;;;;17.85;13.30;;;23.10;99.90;;;;;;5048758;28;20041;-75
2021/06/27 08:03:25;;;;;;;20.75;13.73;;;23.20;99.90;;;;;;5048761;28;20029;-76
2021/06/27 08:05:50;;;;;;;18.63;12.60;;;23.30;99.90;;;;;;5062990;28;20048;-75
2021/06/27 08:08:16;;;;;;;19.13;14.55;;;23.30;99.90;;;;;;5054681;28;20120;-74
2021/06/27 08:10:42;;;;;;;19.92;13.77;;;23.40;99.90;;;;;;5049069;28;20497;-74
2021/06/27 08:13:08;;;;;;;24.42;14.15;;;23.30;99.90;;;;;;5052125;28;20060;-75
2021/06/27 08:15:34;;;;;;;19.75;13.98;;;23.30;99.90;;;;;;5052145;28;20096;-75
2021/06/27 08:18:00;;;;;;;21.60;13.98;;;23.30;99.90;;;;;;5054083;28;20044;-74
2021/06/27 08:20:26;;;;;;;18.42;12.63;;;23.30;99.90;;;;;;5055767;28;20032;-74
2021/06/27 08:22:52;;;;;;;19.52;13.30;;;23.40;99.90;;;;;;5045281;28;20036;-74
2021/06/27 08:25:19;;;;;;;16.67;12.27;;;23.50;99.90;;;;;;5058255;28;20021;-74
2021/06/27 08:27:46;;;;;;;17.33;12.63;;;23.60;99.90;;;;;;5056831;28;20031;-75
2021/06/27 08:30:13;;;;;;;18.88;13.05;;;23.70;99.90;;;;;;5058604;28;20037;-74
2021/06/27 08:32:43;;;;;;;20.13;13.77;;;23.90;99.90;;;;;;5071704;28;20478;-74
2021/06/27 08:35:17;;;;;;;17.30;12.98;;;23.70;99.90;;;;;;5071418;28;20051;-74
2021/06/27 08:37:43;;;;;;;19.25;12.07;;;23.70;99.90;;;;;;5070047;28;20431;-75
2021/06/27 08:40:10;;;;;;;15.95;12.05;;;23.90;99.90;;;;;;5051477;28;20052;-75
2021/06/27 08:42:36;;;;;;;14.18;10.00;;;24.00;99.90;;;;;;5054030;28;20049;-74
2021/06/27 08:45:03;;;;;;;13.80;11.02;;;24.30;99.90;;;;;;5054895;28;20030;-75
2021/06/27 08:47:30;;;;;;;14.73;10.55;;;24.60;99.90;;;;;;5075428;28;20366;-74
2021/06/27 08:49:56;;;;;;;;;;;25.00;99.90;;;;;;5057391;28;20120;-75
2021/06/27 08:52:22;;;;;;;16.23;12.33;;;25.40;99.90;;;;;;5055677;28;19905;-75
2021/06/27 08:54:49;;;;;;;19.08;10.85;;;25.80;99.90;;;;;;5066263;28;20429;-75
2021/06/27 08:57:16;;;;;;;;;;;26.10;99.90;;;;;;5055174;28;20041;-75
2021/06/27 08:59:42;;;;;;;23.27;11.65;;;26.10;99.90;;;;;;5049916;28;19951;-75
2021/06/27 09:02:09;;;;;;;17.13;12.07;;;26.20;99.90;;;;;;5037507;28;20048;-75
2021/06/27 09:04:43;;;;;;;14.50;12.15;;;25.70;99.90;;;;;;5051593;28;20002;-75
2021/06/27 09:07:32;;;;;;;13.57;10.02;;;26.10;99.90;;;;;;5054590;28;20033;-75
2021/06/27 09:10:10;;;;;;;14.80;10.23;;;26.40;99.90;;;;;;5044252;28;20071;-75
2021/06/27 09:12:56;;;;;;;12.88;10.38;;;27.00;99.90;;;;;;5054658;28;20095;-75
2021/06/27 09:15:50;;;;;;;10.52;8.00;;;27.70;99.90;;;;;;5052293;28;20049;-75
2021/06/27 09:18:15;;;;;;;11.52;9.27;;;28.20;99.90;;;;;;5049691;28;20030;-76
2021/06/27 09:20:43;;;;;;;10.18;8.45;;;28.60;99.90;;;;;;5050192;28;20061;-76
2021/06/27 09:23:10;;;;;;;9.98;7.78;;;28.80;99.90;;;;;;5034527;28;20036;-75
2021/06/27 09:25:36;;;;;;;;;;;29.00;99.90;;;;;;5066905;28;20086;-75
2021/06/27 09:28:16;;;;;;;13.73;10.23;;;29.20;99.70;;;;;;5051309;28;19923;-75
2021/06/27 09:30:47;;;;;;;13.48;10.32;;;28.80;99.90;;;;;;5051169;28;20043;-75
2021/06/27 09:33:23;;;;;;;15.95;10.10;;;28.40;99.90;;;;;;5047788;28;20048;-76
2021/06/27 09:36:02;;;;;;;9.63;8.60;;;28.40;99.90;;;;;;5045598;28;20064;-75
2021/06/27 09:38:32;;;;;;;19.30;9.13;;;28.40;99.90;;;;;;5036744;28;20516;-75
2021/06/27 09:41:18;;;;;;;10.82;9.65;;;28.50;99.90;;;;;;5035440;28;20037;-75
2021/06/27 09:43:48;;;;;;;;;;;28.60;99.90;;;;;;5026315;28;20029;-74
2021/06/27 09:46:14;;;;;;;17.08;10.68;;;27.90;99.90;;;;;;5037750;28;19909;-75
2021/06/27 09:48:57;;;;;;;14.77;11.00;;;27.20;99.90;;;;;;5037404;28;20048;-75
2021/06/27 09:51:27;;;;;;;14.00;10.80;;;27.10;99.90;;;;;;5037264;28;20036;-75
2021/06/27 09:53:54;;;;;;;16.67;11.23;;;26.90;99.90;;;;;;5032673;28;20064;-74
2021/06/27 09:56:23;;;;;;;17.00;9.85;;;26.70;99.90;;;;;;5036125;28;20025;-75
2021/06/27 09:59:03;;;;;;;16.00;9.93;;;26.70;99.90;;;;;;5035442;28;20017;-75
2021/06/27 10:01:30;;;;;;;10.65;9.43;;;26.50;99.90;;;;;;5037461;28;20037;-75
2021/06/27 10:03:58;;;;;;;13.70;10.15;;;26.90;99.90;;;;;;5037400;28;20032;-75
2021/06/27 10:06:28;;;;;;;13.00;9.80;;;27.50;99.90;;;;;;5034285;28;20069;-74
2021/06/27 10:09:06;;;;;;;10.85;8.32;;;27.70;99.90;;;;;;5036164;28;20374;-74
2021/06/27 10:11:32;;;;;;;12.73;9.70;;;28.30;99.90;;;;;;5029434;28;20026;-74
2021/06/27 10:14:07;;;;;;;10.43;9.18;;;28.80;99.90;;;;;;5034951;28;20025;-74
2021/06/27 10:16:33;;;;;;;9.13;8.05;;;29.50;99.50;;;;;;5035003;28;20083;-75
2021/06/27 10:19:00;;;;;;;11.23;8.68;;;30.10;99.10;;;;;;5037254;28;20409;-76
2021/06/27 10:21:28;;;;;;;8.43;7.53;;;30.80;97.10;;;;;;5034738;28;20045;-75
2021/06/27 10:23:54;;;;;;;11.32;7.97;;;30.90;97.20;;;;;;5034986;28;20042;-74
2021/06/27 10:26:22;;;;;;;11.20;8.95;;;30.70;97.20;;;;;;5030898;28;20052;-74
2021/06/27 10:28:49;;;;;;;10.52;8.02;;;30.60;97.30;;;;;;5037583;28;20052;-75
2021/06/27 10:31:17;;;;;;;14.48;8.15;;;30.60;97.40;;;;;;5030225;28;20046;-75
2021/06/27 10:33:45;;;;;;;12.40;8.82;;;30.90;95.60;;;;;;5040355;28;20030;-74
2021/06/27 10:36:13;;;;;;;10.85;6.78;;;31.20;95.70;;;;;;5034540;28;20075;-75
2021/06/27 10:38:45;;;;;;;12.27;8.27;;;31.00;96.10;;;;;;5033338;28;20021;-74
2021/06/27 10:41:11;;;;;;;8.68;6.68;;;31.00;95.50;;;;;;5033445;28;20037;-75
2021/06/27 10:43:55;;;;;;;6.90;6.33;;;31.00;96.00;;;;;;5034691;28;20021;-76
2021/06/27 10:46:40;;;;;;;7.68;6.93;;;31.00;95.60;;;;;;5033092;28;20051;-76
2021/06/27 10:49:27;;;;;;;6.22;5.63;;;30.80;95.10;;;;;;5030410;28;21253;-75
2021/06/27 10:52:10;;;;;;;8.77;7.20;;;30.90;95.10;;;;;;5033078;28;20104;-75
2021/06/27 10:54:38;;;;;;;8.00;6.43;;;30.10;95.60;;;;;;5041842;28;20025;-74
2021/06/27 10:57:05;;;;;;;6.72;6.05;;;30.00;95.60;;;;;;5033799;28;20017;-74
2021/06/27 10:59:40;;;;;;;9.57;6.15;;;29.80;96.10;;;;;;5030130;28;20401;-74
2021/06/27 11:02:20;;;;;;;7.75;6.70;;;29.70;95.90;;;;;;5020987;28;20117;-75
2021/06/27 11:04:49;;;;;;;6.88;5.95;;;29.80;96.10;;;;;;5021458;28;20040;-75
2021/06/27 11:07:36;;;;;;;6.43;5.72;;;29.70;95.80;;;;;;5035605;28;20494;-74
2021/06/27 11:10:20;;;;;;;7.03;5.43;;;29.50;96.20;;;;;;5054601;28;20037;-74
2021/06/27 11:12:55;;;;;;;6.53;5.88;;;29.40;96.30;;;;;;5053389;28;20048;-74
2021/06/27 11:15:23;;;;;;;6.00;5.50;;;29.40;95.20;;;;;;5039124;28;20080;-75
2021/06/27 11:17:53;;;;;;;5.63;5.13;;;29.50;95.00;;;;;;5033925;28;20425;-75
2021/06/27 11:20:19;;;;;;;14.50;6.05;;;29.50;95.60;;;;;;5033534;28;20024;-74
2021/06/27 11:22:53;;;;;;;5.53;5.05;;;29.30;95.30;;;;;;5030619;28;20656;-74
2021/06/27 11:25:40;;;;;;;5.00;4.45;;;29.20;96.00;;;;;;5035225;28;20040;-75
2021/06/27 11:28:18;;;;;;;5.47;4.97;;;29.20;93.90;;;;;;5054684;28;20103;-75
2021/06/27 11:30:47;;;;;;;7.00;4.97;;;29.20;94.10;;;;;;5034750;28;20124;-75
2021/06/27 11:33:20;;;;;;;7.63;5.50;;;29.00;95.30;;;;;;5033395;28;20517;-75
2021/06/27 11:35:50;;;;;;;6.13;5.63;;;28.80;94.70;;;;;;5018589;28;20116;-74
2021/06/27 11:38:34;;;;;;;7.05;6.15;;;28.80;95.40;;;;;;5030999;28;20080;-74
2021/06/27 11:41:02;;;;;;;7.25;5.80;;;29.00;94.50;;;;;;5031420;28;20504;-74
2021/06/27 11:44:03;;;;;;;5.80;5.13;;;28.90;94.90;;;;;;5033647;28;20075;-74
2021/06/27 11:46:35;;;;;;;6.30;5.07;;;28.80;94.90;;;;;;5025531;28;20112;-75
2021/06/27 11:49:12;;;;;;;5.28;4.75;;;28.60;94.90;;;;;;5024558;28;20420;-74
2021/06/27 11:51:48;;;;;;;8.25;4.80;;;28.60;96.00;;;;;;5025552;28;20029;-75
2021/06/27 11:54:17;;;;;;;4.97;4.47;;;28.50;95.90;;;;;;5033726;28;20026;-74
2021/06/27 11:57:01;;;;;;;6.30;4.63;;;28.60;94.50;;;;;;5025239;28;20025;-75
2021/06/27 11:59:30;;;;;;;5.85;5.25;;;28.80;94.60;;;;;;5024566;28;20026;-74
2021/06/27 12:02:10;;;;;;;5.97;5.38;;;28.70;94.60;;;;;;5029117;28;20034;-75
2021/06/27 12:04:42;;;;;;;5.57;5.05;;;28.40;96.10;;;;;;5043300;28;20064;-74
2021/06/27 12:07:27;;;;;;;5.55;5.00;;;28.50;96.20;;;;;;5032367;28;20505;-75
2021/06/27 12:09:53;;;;;;;5.53;5.03;;;28.60;96.00;;;;;;5033557;28;20029;-74
2021/06/27 12:12:42;;;;;;;5.57;5.10;;;28.20;95.30;;;;;;5032039;28;20128;-75
2021/06/27 12:15:38;;;;;;;7.22;5.07;;;27.70;96.20;;;;;;5032526;28;20109;-75
2021/06/27 12:18:20;;;;;;;6.57;5.82;;;27.80;95.90;;;;;;5026308;28;20057;-75
2021/06/27 12:20:51;;;;;;;5.55;5.07;;;28.20;96.40;;;;;;5014048;28;20595;-75
2021/06/27 12:23:29;;;;;;;5.40;4.90;;;28.60;94.70;;;;;;5027226;28;20040;-74
2021/06/27 12:26:18;;;;;;;5.30;4.80;;;29.10;94.60;;;;;;5032087;28;20068;-74
2021/06/27 12:28:55;;;;;;;5.05;4.65;;;29.40;94.30;;;;;;5033430;28;20018;-75
2021/06/27 12:31:29;;;;;;;7.75;4.93;;;29.50;94.40;;;;;;5018561;28;20095;-74
2021/06/27 12:33:58;;;;;;;5.63;5.13;;;29.50;93.80;;;;;;5036551;28;20038;-74
2021/06/27 12:36:27;;;;;;;10.15;4.57;;;29.50;94.60;;;;;;5016597;28;20081;-74
2021/06/27 12:38:55;;;;;;;8.45;5.07;;;29.30;94.00;;;;;;5040552;28;20037;-74
2021/06/27 12:41:26;;;;;;;5.85;4.95;;;28.90;95.00;;;;;;5033236;28;20034;-74
2021/06/27 12:43:57;;;;;;;6.35;4.13;;;28.60;94.20;;;;;;5033585;28;20048;-74